createdAt,value
2018-08-10T00:00:47.322Z,0
2018-08-10T00:01:57.429Z,0
2018-08-10T00:03:07.516Z,0
2018-08-10T00:04:17.334Z,0
2018-08-10T00:05:27.207Z,0
2018-08-10T00:06:37.300Z,0
2018-08-10T00:07:47.409Z,0
2018-08-10T00:08:57.714Z,0
2018-08-10T00:10:07.864Z,0
2018-08-10T00:11:17.709Z,0
2018-08-10T00:12:27.795Z,0
2018-08-10T00:13:37.901Z,0
2018-08-10T00:14:47.989Z,0
2018-08-10T00:15:57.821Z,0
2018-08-10T00:17:07.978Z,0
2018-08-10T00:18:18.078Z,0
2018-08-10T00:19:28.160Z,0
2018-08-10T00:20:38.011Z,0
2018-08-10T00:21:47.830Z,0
2018-08-10T00:22:57.955Z,0
2018-08-10T00:24:08.053Z,0
2018-08-10T00:25:17.875Z,0
2018-08-10T00:26:27.962Z,0
2018-08-10T00:27:37.799Z,0
2018-08-10T00:28:47.961Z,0
2018-08-10T00:29:58.021Z,0
2018-08-10T00:31:08.122Z,0
2018-08-10T00:32:17.937Z,0
2018-08-10T00:33:27.494Z,0
2018-08-10T00:34:37.569Z,0
2018-08-10T00:35:47.664Z,0
2018-08-10T00:36:57.748Z,0
2018-08-10T00:38:07.576Z,0
2018-08-10T00:39:17.407Z,0
2018-08-10T00:40:27.490Z,0
2018-08-10T00:41:37.575Z,0
2018-08-10T00:42:47.391Z,0
2018-08-10T00:43:57.208Z,0
2018-08-10T00:45:07.302Z,0
2018-08-10T00:46:17.388Z,0
2018-08-10T00:47:27.198Z,0
2018-08-10T00:48:37.295Z,0
2018-08-10T00:49:47.366Z,0
2018-08-10T00:50:56.937Z,0
2018-08-10T00:52:07.022Z,0
2018-08-10T00:53:17.094Z,0
2018-08-10T00:54:27.162Z,0
2018-08-10T00:55:37.266Z,0
2018-08-10T00:56:47.341Z,0
2018-08-10T00:57:57.403Z,0
2018-08-10T00:59:07.478Z,0
2018-08-10T01:00:17.561Z,0
2018-08-10T01:01:27.647Z,0
2018-08-10T01:02:37.734Z,0
2018-08-10T01:03:47.806Z,0
2018-08-10T01:04:57.881Z,0
2018-08-10T01:06:07.981Z,0
2018-08-10T01:07:18.049Z,0
2018-08-10T01:08:27.869Z,0
2018-08-10T01:09:37.954Z,0
2018-08-10T01:10:48.030Z,0
2018-08-10T01:11:58.109Z,0
2018-08-10T01:13:08.257Z,0
2018-08-10T01:14:18.358Z,0
2018-08-10T01:15:28.453Z,0
2018-08-10T01:16:38.260Z,0
2018-08-10T01:17:48.091Z,0
2018-08-10T01:18:58.245Z,0
2018-08-10T01:20:08.353Z,0
2018-08-10T01:21:18.451Z,0
2018-08-10T01:22:28.530Z,0
2018-08-10T01:23:38.344Z,0
2018-08-10T01:24:48.428Z,0
2018-08-10T01:25:58.503Z,0
2018-08-10T01:27:08.583Z,0
2018-08-10T01:28:18.811Z,0
2018-08-10T01:29:28.629Z,0
2018-08-10T01:30:38.700Z,0
2018-08-10T01:31:48.764Z,0
2018-08-10T01:32:58.901Z,0
2018-08-10T01:34:09.006Z,0
2018-08-10T01:35:18.817Z,0
2018-08-10T01:36:28.886Z,0
2018-08-10T01:37:38.948Z,0
2018-08-10T01:38:49.023Z,0
2018-08-10T01:39:59.094Z,0
2018-08-10T01:41:09.179Z,0
2018-08-10T01:42:19.265Z,0
2018-08-10T01:43:29.341Z,0
2018-08-10T01:44:38.947Z,0
2018-08-10T01:45:48.767Z,0
2018-08-10T01:46:58.855Z,0
2018-08-10T01:48:08.936Z,0
2018-08-10T01:49:18.746Z,0
2018-08-10T01:50:28.813Z,0
2018-08-10T01:51:38.885Z,0
2018-08-10T01:52:48.979Z,0
2018-08-10T01:53:59.048Z,0
2018-08-10T01:55:09.132Z,0
2018-08-10T01:56:19.209Z,0
2018-08-10T01:57:29.300Z,0
2018-08-10T01:58:39.116Z,0
2018-08-10T01:59:49.190Z,0
2018-08-10T02:00:59.006Z,0
2018-08-10T02:02:09.078Z,0
2018-08-10T02:03:19.155Z,0
2018-08-10T02:04:28.996Z,0
2018-08-10T02:05:38.816Z,0
2018-08-10T02:06:48.620Z,0
2018-08-10T02:07:58.729Z,0
2018-08-10T02:09:08.818Z,0
2018-08-10T02:10:18.886Z,0
2018-08-10T02:11:28.974Z,0
2018-08-10T02:12:39.085Z,0
2018-08-10T02:13:49.216Z,0
2018-08-10T02:14:59.312Z,0
2018-08-10T02:16:09.373Z,0
2018-08-10T02:17:18.940Z,0
2018-08-10T02:18:28.749Z,0
2018-08-10T02:19:38.585Z,0
2018-08-10T02:20:48.649Z,0
2018-08-10T02:21:58.728Z,0
2018-08-10T02:23:08.550Z,0
2018-08-10T02:24:18.648Z,0
2018-08-10T02:25:28.772Z,0
2018-08-10T02:26:38.855Z,0
2018-08-10T02:27:48.945Z,0
2018-08-10T02:28:59.023Z,0
2018-08-10T02:30:09.112Z,0
2018-08-10T02:31:19.196Z,0
2018-08-10T02:32:29.319Z,0
2018-08-10T02:33:39.428Z,0
2018-08-10T02:34:49.496Z,0
2018-08-10T02:35:59.602Z,0
2018-08-10T02:37:09.680Z,0
2018-08-10T02:38:19.541Z,0
2018-08-10T02:39:29.361Z,0
2018-08-10T02:40:38.934Z,0
2018-08-10T02:41:48.764Z,0
2018-08-10T02:42:58.868Z,0
2018-08-10T02:44:08.682Z,0
2018-08-10T02:45:18.774Z,0
2018-08-10T02:46:28.849Z,0
2018-08-10T02:47:38.935Z,0
2018-08-10T02:48:49.097Z,0
2018-08-10T02:49:59.189Z,0
2018-08-10T02:51:09.263Z,0
2018-08-10T02:52:19.346Z,0
2018-08-10T02:53:29.419Z,0
2018-08-10T02:54:39.255Z,0
2018-08-10T02:55:49.331Z,0
2018-08-10T02:56:59.411Z,0
2018-08-10T02:58:09.232Z,0
2018-08-10T02:59:19.313Z,0
2018-08-10T03:00:29.379Z,0
2018-08-10T03:01:39.461Z,0
2018-08-10T03:02:49.306Z,0
2018-08-10T03:35:19.770Z,0
2018-08-10T03:36:29.560Z,0
2018-08-10T03:37:39.679Z,0
2018-08-10T03:38:49.798Z,0
2018-08-10T03:39:59.881Z,5
2018-08-10T03:41:09.959Z,5
2018-08-10T03:42:20.023Z,5
2018-08-10T03:43:29.838Z,5
2018-08-10T03:44:39.906Z,5
2018-08-10T03:45:49.988Z,5
2018-08-10T03:46:59.848Z,5
2018-08-10T03:48:09.914Z,5
2018-08-10T03:49:19.735Z,10
2018-08-10T03:50:29.803Z,10
2018-08-10T03:51:39.889Z,10
2018-08-10T03:52:50.024Z,10
2018-08-10T03:54:00.118Z,10
2018-08-10T03:55:10.186Z,15
2018-08-10T03:56:20.413Z,15
2018-08-10T03:57:29.966Z,15
2018-08-10T03:58:40.048Z,15
2018-08-10T03:59:50.118Z,20
2018-08-10T04:00:59.928Z,20
2018-08-10T04:02:09.997Z,20
2018-08-10T04:03:20.084Z,20
2018-08-10T04:04:30.185Z,25
2018-08-10T04:05:40.265Z,25
2018-08-10T04:06:50.348Z,25
2018-08-10T04:08:00.423Z,25
2018-08-10T04:09:10.494Z,30
2018-08-10T04:10:20.568Z,30
2018-08-10T04:11:30.394Z,30
2018-08-10T04:12:40.214Z,35
2018-08-10T04:13:50.360Z,35
2018-08-10T04:15:00.430Z,35
2018-08-10T04:16:10.522Z,40
2018-08-10T04:17:20.575Z,40
2018-08-10T04:18:30.657Z,40
2018-08-10T04:19:40.467Z,45
2018-08-10T04:20:50.555Z,45
2018-08-10T04:22:00.628Z,45
2018-08-10T04:23:10.711Z,50
2018-08-10T04:24:20.794Z,50
2018-08-10T04:25:30.613Z,50
2018-08-10T04:26:40.684Z,50
2018-08-10T04:27:50.542Z,50
2018-08-10T04:29:00.659Z,55
2018-08-10T04:30:10.735Z,55
2018-08-10T04:31:20.815Z,65
2018-08-10T04:32:30.891Z,65
2018-08-10T04:33:40.966Z,65
2018-08-10T04:34:50.779Z,65
2018-08-10T04:36:00.331Z,80
2018-08-10T04:37:10.415Z,85
2018-08-10T04:38:19.975Z,90
2018-08-10T04:39:29.531Z,100
2018-08-10T04:40:39.610Z,75
2018-08-10T04:41:49.425Z,80
2018-08-10T04:42:59.494Z,110
2018-08-10T04:44:09.588Z,85
2018-08-10T04:45:19.657Z,85
2018-08-10T04:46:29.747Z,90
2018-08-10T04:47:39.824Z,85
2018-08-10T04:48:49.912Z,90
2018-08-10T04:49:59.990Z,115
2018-08-10T04:51:10.078Z,135
2018-08-10T04:52:19.906Z,155
2018-08-10T04:53:29.715Z,165
2018-08-10T04:54:39.536Z,230
2018-08-10T04:55:49.627Z,240
2018-08-10T04:56:59.697Z,240
2018-08-10T04:58:09.804Z,240
2018-08-10T04:59:19.874Z,245
2018-08-10T05:00:29.957Z,245
2018-08-10T05:01:39.775Z,255
2018-08-10T05:02:49.612Z,260
2018-08-10T05:03:59.671Z,260
2018-08-10T05:05:09.486Z,275
2018-08-10T05:06:19.583Z,270
2018-08-10T05:07:29.657Z,255
2018-08-10T05:08:39.787Z,260
2018-08-10T05:09:50.022Z,260
2018-08-10T05:10:59.904Z,260
2018-08-10T05:12:09.983Z,250
2018-08-10T05:13:19.534Z,200
2018-08-10T05:14:29.622Z,225
2018-08-10T05:15:39.849Z,245
2018-08-10T05:16:49.945Z,255
2018-08-10T05:17:59.762Z,225
2018-08-10T05:19:08.788Z,260
2018-08-10T05:20:18.611Z,225
2018-08-10T05:21:28.192Z,270
2018-08-10T05:22:38.254Z,285
2018-08-10T05:23:48.316Z,270
2018-08-10T05:24:58.396Z,265
2018-08-10T05:26:08.813Z,200
2018-08-10T05:27:18.637Z,145
2018-08-10T05:28:28.782Z,160
2018-08-10T05:29:38.871Z,140
2018-08-10T05:30:48.940Z,135
2018-08-10T05:31:59.006Z,125
2018-08-10T05:33:09.074Z,120
2018-08-10T05:34:19.154Z,125
2018-08-10T05:35:29.233Z,130
2018-08-10T05:36:39.046Z,130
2018-08-10T05:37:49.199Z,130
2018-08-10T05:38:59.288Z,130
2018-08-10T05:40:09.360Z,135
2018-08-10T05:41:19.452Z,150
2018-08-10T05:42:29.545Z,155
2018-08-10T05:43:39.627Z,160
2018-08-10T05:44:49.717Z,160
2018-08-10T05:45:59.795Z,140
2018-08-10T05:47:10.003Z,155
2018-08-10T05:48:20.240Z,190
2018-08-10T05:49:30.334Z,200
2018-08-10T05:50:40.145Z,145
2018-08-10T05:51:49.961Z,145
2018-08-10T05:53:00.066Z,145
2018-08-10T05:54:09.884Z,165
2018-08-10T05:55:19.955Z,195
2018-08-10T05:56:30.024Z,145
2018-08-10T05:57:40.166Z,135
2018-08-10T05:58:50.231Z,150
2018-08-10T06:00:00.069Z,225
2018-08-10T06:01:10.140Z,215
2018-08-10T06:02:20.233Z,185
2018-08-10T06:03:30.886Z,200
2018-08-10T06:04:40.706Z,175
2018-08-10T06:05:50.798Z,170
2018-08-10T06:07:00.881Z,160
2018-08-10T06:08:10.961Z,155
2018-08-10T06:09:20.530Z,165
2018-08-10T06:10:30.349Z,165
2018-08-10T06:11:40.263Z,165
2018-08-10T06:12:50.340Z,170
2018-08-10T06:14:00.159Z,180
2018-08-10T06:15:10.232Z,200
2018-08-10T06:16:19.790Z,210
2018-08-10T06:17:29.337Z,220
2018-08-10T06:18:39.165Z,225
2018-08-10T06:19:49.542Z,220
2018-08-10T06:20:59.636Z,200
2018-08-10T06:22:09.723Z,215
2018-08-10T06:23:19.804Z,220
2018-08-10T06:24:29.869Z,215
2018-08-10T06:25:39.937Z,210
2018-08-10T06:26:50.005Z,215
2018-08-10T06:28:00.436Z,215
2018-08-10T06:29:10.542Z,220
2018-08-10T06:30:20.608Z,215
2018-08-10T06:31:30.671Z,205
2018-08-10T06:32:40.741Z,190
2018-08-10T06:33:50.853Z,180
2018-08-10T06:35:00.606Z,185
2018-08-10T06:36:10.685Z,190
2018-08-10T06:37:20.758Z,185
2018-08-10T06:38:30.836Z,180
2018-08-10T06:39:40.720Z,180
2018-08-10T06:40:50.834Z,175
2018-08-10T06:42:00.938Z,175
2018-08-10T06:43:11.046Z,175
2018-08-10T06:44:21.132Z,175
2018-08-10T06:45:30.949Z,175
2018-08-10T06:46:41.033Z,175
2018-08-10T06:47:50.854Z,170
2018-08-10T06:49:00.945Z,170
2018-08-10T06:50:11.295Z,175
2018-08-10T06:51:21.849Z,175
2018-08-10T06:52:31.984Z,175
2018-08-10T06:53:41.804Z,175
2018-08-10T06:54:51.898Z,175
2018-08-10T06:56:02.791Z,175
2018-08-10T06:57:12.669Z,175
2018-08-10T06:58:22.792Z,175
2018-08-10T06:59:32.622Z,180
2018-08-10T07:00:42.865Z,175
2018-08-10T07:01:52.750Z,175
2018-08-10T07:03:02.579Z,180
2018-08-10T07:04:12.673Z,185
2018-08-10T07:05:22.774Z,185
2018-08-10T07:06:32.893Z,195
2018-08-10T07:07:43.656Z,195
2018-08-10T07:08:53.490Z,200
2018-08-10T07:10:03.315Z,200
2018-08-10T07:11:13.401Z,200
2018-08-10T07:12:23.484Z,205
2018-08-10T07:13:34.182Z,205
2018-08-10T07:14:43.975Z,205
2018-08-10T07:15:54.128Z,205
2018-08-10T07:17:04.216Z,205
2018-08-10T07:18:14.287Z,195
2018-08-10T07:19:24.120Z,205
2018-08-10T07:20:34.207Z,205
2018-08-10T07:21:44.326Z,210
2018-08-10T07:22:54.417Z,210
2018-08-10T07:24:04.490Z,215
2018-08-10T07:25:14.577Z,205
2018-08-10T07:26:24.413Z,205
2018-08-10T07:27:34.252Z,185
2018-08-10T07:28:44.339Z,185
2018-08-10T07:29:54.168Z,205
2018-08-10T07:31:04.054Z,180
2018-08-10T07:32:14.203Z,185
2018-08-10T07:33:23.778Z,200
2018-08-10T07:34:33.918Z,195
2018-08-10T07:35:43.992Z,180
2018-08-10T07:36:54.124Z,180
2018-08-10T07:38:04.231Z,185
2018-08-10T07:39:14.320Z,210
2018-08-10T07:40:24.420Z,185
2018-08-10T07:41:34.246Z,205
2018-08-10T07:42:44.332Z,200
2018-08-10T07:43:54.151Z,190
2018-08-10T07:45:04.243Z,215
2018-08-10T07:46:14.063Z,215
2018-08-10T07:47:24.129Z,200
2018-08-10T07:48:34.221Z,195
2018-08-10T07:49:44.333Z,205
2018-08-10T07:50:54.438Z,205
2018-08-10T07:52:04.339Z,195
2018-08-10T07:53:14.431Z,195
2018-08-10T07:54:24.519Z,190
2018-08-10T07:55:34.370Z,190
2018-08-10T07:56:44.203Z,185
2018-08-10T07:57:54.275Z,185
2018-08-10T07:59:04.291Z,190
2018-08-10T08:00:14.580Z,190
2018-08-10T08:01:24.664Z,190
2018-08-10T08:02:34.735Z,190
2018-08-10T08:03:44.862Z,190
2018-08-10T08:04:54.698Z,185
2018-08-10T08:06:04.651Z,185
2018-08-10T08:07:15.121Z,190
2018-08-10T08:08:25.200Z,190
2018-08-10T08:09:35.282Z,190
2018-08-10T08:10:45.767Z,185
2018-08-10T08:11:55.875Z,185
2018-08-10T08:13:05.950Z,190
2018-08-10T08:14:15.779Z,190
2018-08-10T08:15:25.860Z,190
2018-08-10T08:16:35.698Z,190
2018-08-10T08:17:45.775Z,185
2018-08-10T08:18:55.863Z,185
2018-08-10T08:20:06.507Z,185
2018-08-10T08:21:16.599Z,185
2018-08-10T08:22:26.680Z,185
2018-08-10T08:23:36.812Z,185
2018-08-10T08:24:46.637Z,185
2018-08-10T08:25:56.456Z,185
2018-08-10T08:27:06.715Z,185
2018-08-10T08:28:16.857Z,185
2018-08-10T08:29:26.990Z,185
2018-08-10T08:30:37.089Z,185
2018-08-10T08:31:47.196Z,190
2018-08-10T08:32:57.258Z,190
2018-08-10T08:34:07.103Z,195
2018-08-10T08:35:17.656Z,190
2018-08-10T08:36:27.478Z,195
2018-08-10T08:37:37.347Z,195
2018-08-10T08:38:47.436Z,190
2018-08-10T08:39:57.266Z,190
2018-08-10T08:41:07.880Z,190
2018-08-10T08:42:17.990Z,190
2018-08-10T08:43:27.804Z,190
2018-08-10T08:44:37.889Z,195
2018-08-10T08:45:49.364Z,195
2018-08-10T08:46:59.675Z,195
2018-08-10T08:48:09.811Z,195
2018-08-10T08:49:19.905Z,200
2018-08-10T08:50:30.015Z,205
2018-08-10T08:51:40.107Z,200
2018-08-10T08:52:49.937Z,205
2018-08-10T08:54:00.073Z,205
2018-08-10T08:55:10.170Z,210
2018-08-10T08:56:20.249Z,210
2018-08-10T08:57:30.620Z,180
2018-08-10T08:58:40.709Z,175
2018-08-10T08:59:50.798Z,190
2018-08-10T09:01:00.900Z,210
2018-08-10T09:02:10.734Z,210
2018-08-10T09:03:20.859Z,210
2018-08-10T09:04:30.977Z,210
2018-08-10T09:05:41.087Z,210
2018-08-10T09:06:50.930Z,210
2018-08-10T09:08:01.029Z,210
2018-08-10T09:09:11.132Z,210
2018-08-10T09:10:20.863Z,215
2018-08-10T09:11:30.688Z,215
2018-08-10T09:12:40.501Z,210
2018-08-10T09:13:50.342Z,210
2018-08-10T09:15:00.177Z,210
2018-08-10T09:16:10.223Z,215
2018-08-10T09:18:03.005Z,210
2018-08-10T09:19:13.309Z,210
2018-08-10T09:20:23.336Z,215
2018-08-10T09:21:33.516Z,215
2018-08-10T09:22:43.615Z,215
2018-08-10T09:23:53.453Z,215
2018-08-10T09:25:03.269Z,215
2018-08-10T09:26:13.442Z,230
2018-08-10T09:27:23.537Z,235
2018-08-10T09:28:33.368Z,235
2018-08-10T09:29:43.466Z,245
2018-08-10T09:30:53.557Z,240
2018-08-10T09:32:04.107Z,240
2018-08-10T09:33:14.204Z,240
2018-08-10T09:34:24.132Z,245
2018-08-10T09:35:34.331Z,240
2018-08-10T09:36:44.416Z,225
2018-08-10T09:37:54.535Z,230
2018-08-10T09:39:04.631Z,225
2018-08-10T09:40:14.715Z,220
2018-08-10T09:41:24.578Z,225
2018-08-10T09:42:34.660Z,225
2018-08-10T09:43:44.755Z,225
2018-08-10T09:44:54.859Z,230
2018-08-10T09:46:04.697Z,225
2018-08-10T09:47:14.911Z,220
2018-08-10T09:48:25.015Z,220
2018-08-10T09:49:35.125Z,220
2018-08-10T09:50:45.201Z,230
2018-08-10T09:51:55.738Z,225
2018-08-10T09:53:05.587Z,225
2018-08-10T09:54:15.684Z,235
2018-08-10T09:55:25.243Z,240
2018-08-10T09:56:35.355Z,240
2018-08-10T09:57:45.246Z,250
2018-08-10T09:58:55.328Z,255
2018-08-10T10:00:05.552Z,265
2018-08-10T10:01:15.654Z,275
2018-08-10T10:02:25.475Z,255
2018-08-10T10:03:35.549Z,260
2018-08-10T10:04:45.623Z,260
2018-08-10T10:05:55.703Z,270
2018-08-10T10:07:05.803Z,275
2018-08-10T10:08:15.917Z,250
2018-08-10T10:09:25.763Z,260
2018-08-10T10:10:35.862Z,290
2018-08-10T10:11:45.954Z,320
2018-08-10T10:12:56.053Z,310
2018-08-10T10:14:06.129Z,320
2018-08-10T10:15:15.979Z,335
2018-08-10T10:16:26.081Z,330
2018-08-10T10:17:36.565Z,330
2018-08-10T10:18:46.393Z,330
2018-08-10T10:19:56.512Z,330
2018-08-10T10:21:06.846Z,325
2018-08-10T10:22:17.049Z,270
2018-08-10T10:23:26.889Z,260
2018-08-10T10:24:36.981Z,250
2018-08-10T10:25:47.068Z,240
2018-08-10T10:26:57.172Z,250
2018-08-10T10:28:07.247Z,280
2018-08-10T10:29:17.348Z,250
2018-08-10T10:30:27.439Z,230
2018-08-10T10:31:37.532Z,230
2018-08-10T10:32:48.091Z,220
2018-08-10T10:33:58.205Z,260
2018-08-10T10:35:08.297Z,225
2018-08-10T10:36:18.391Z,255
2018-08-10T10:37:28.527Z,260
2018-08-10T10:38:38.711Z,240
2018-08-10T10:39:48.792Z,270
2018-08-10T10:40:58.893Z,270
2018-08-10T10:42:08.968Z,245
2018-08-10T10:43:19.061Z,250
2018-08-10T10:44:29.208Z,245
2018-08-10T10:45:39.301Z,240
2018-08-10T10:46:49.409Z,240
2018-08-10T10:47:59.505Z,235
2018-08-10T10:49:09.602Z,235
2018-08-10T10:50:19.705Z,240
2018-08-10T10:51:29.777Z,240
2018-08-10T10:52:39.364Z,240
2018-08-10T10:53:49.455Z,240
2018-08-10T10:54:59.542Z,245
2018-08-10T10:56:09.668Z,245
2018-08-10T10:57:19.519Z,245
2018-08-10T10:58:29.613Z,245
2018-08-10T10:59:39.689Z,245
2018-08-10T11:00:49.515Z,250
2018-08-10T11:01:59.608Z,250
2018-08-10T11:03:09.742Z,250
2018-08-10T11:04:19.602Z,255
2018-08-10T11:05:29.680Z,255
2018-08-10T11:06:39.761Z,255
2018-08-10T11:07:49.933Z,255
2018-08-10T11:09:00.042Z,255
2018-08-10T11:10:10.136Z,265
2018-08-10T11:11:20.273Z,280
2018-08-10T11:12:30.363Z,310
2018-08-10T11:13:40.455Z,295
2018-08-10T11:14:50.552Z,300
2018-08-10T11:16:00.363Z,305
2018-08-10T11:17:10.181Z,305
2018-08-10T11:18:20.568Z,325
2018-08-10T11:19:30.670Z,320
2018-08-10T11:20:40.741Z,305
2018-08-10T11:21:50.821Z,260
2018-08-10T11:23:00.906Z,240
2018-08-10T11:24:11.465Z,230
2018-08-10T11:25:22.709Z,220
2018-08-10T11:26:32.864Z,215
2018-08-10T11:27:42.684Z,215
2018-08-10T11:28:52.798Z,215
2018-08-10T11:30:02.643Z,220
2018-08-10T11:31:12.783Z,220
2018-08-10T11:32:22.867Z,220
2018-08-10T11:33:32.968Z,215
2018-08-10T11:34:43.067Z,215
2018-08-10T11:35:53.172Z,210
2018-08-10T11:37:03.278Z,215
2018-08-10T11:38:13.117Z,220
2018-08-10T11:39:23.197Z,245
2018-08-10T11:40:33.297Z,260
2018-08-10T11:41:43.773Z,300
2018-08-10T11:42:53.857Z,400
2018-08-10T11:44:03.972Z,400
2018-08-10T11:45:14.280Z,400
2018-08-10T11:46:24.110Z,340
2018-08-10T11:47:34.201Z,365
2018-08-10T11:48:44.318Z,320
2018-08-10T11:49:54.428Z,305
2018-08-10T11:51:04.579Z,320
2018-08-10T11:52:14.679Z,355
2018-08-10T11:53:24.488Z,365
2018-08-10T11:54:34.709Z,355
2018-08-10T11:55:44.800Z,350
2018-08-10T11:56:54.894Z,335
2018-08-10T11:58:04.982Z,335
2018-08-10T11:59:15.082Z,330
2018-08-10T12:00:25.183Z,320
2018-08-10T12:01:35.287Z,305
2018-08-10T12:02:45.389Z,295
2018-08-10T12:03:55.496Z,285
2018-08-10T12:05:05.322Z,285
2018-08-10T12:06:15.506Z,290
2018-08-10T12:07:25.111Z,295
2018-08-10T12:08:35.207Z,300
2018-08-10T12:09:45.313Z,290
2018-08-10T12:10:55.149Z,285
2018-08-10T12:12:05.243Z,265
2018-08-10T12:13:15.342Z,285
2018-08-10T12:14:25.439Z,285
2018-08-10T12:15:35.273Z,275
2018-08-10T12:16:45.094Z,300
2018-08-10T12:17:55.186Z,295
2018-08-10T12:19:05.188Z,290
2018-08-10T12:20:15.314Z,300
2018-08-10T12:21:25.145Z,250
2018-08-10T12:22:35.264Z,225
2018-08-10T12:23:45.364Z,230
2018-08-10T12:24:55.946Z,245
2018-08-10T12:26:06.064Z,255
2018-08-10T12:27:15.906Z,255
2018-08-10T12:28:25.735Z,260
2018-08-10T12:29:35.572Z,270
2018-08-10T12:30:45.662Z,270
2018-08-10T12:31:55.768Z,290
2018-08-10T12:33:05.868Z,280
2018-08-10T12:34:15.714Z,360
2018-08-10T12:35:25.873Z,340
2018-08-10T12:36:35.977Z,280
2018-08-10T12:37:46.105Z,275
2018-08-10T12:38:55.938Z,275
2018-08-10T12:40:06.039Z,285
2018-08-10T12:41:16.133Z,295
2018-08-10T12:42:26.243Z,265
2018-08-10T12:43:36.347Z,250
2018-08-10T12:44:46.456Z,265
2018-08-10T12:45:56.546Z,280
2018-08-10T12:47:06.698Z,290
2018-08-10T12:48:16.273Z,240
2018-08-10T12:49:26.116Z,225
2018-08-10T12:50:36.372Z,230
2018-08-10T12:51:46.506Z,240
2018-08-10T12:52:56.349Z,235
2018-08-10T12:54:05.659Z,245
2018-08-10T12:55:15.736Z,245
2018-08-10T12:56:25.827Z,265
2018-08-10T12:57:35.935Z,260
2018-08-10T12:58:46.035Z,225
2018-08-10T12:59:55.882Z,200
2018-08-10T13:01:05.705Z,190
2018-08-10T13:02:15.801Z,185
2018-08-10T13:03:26.385Z,165
2018-08-10T13:04:36.236Z,160
2018-08-10T13:05:46.310Z,150
2018-08-10T13:06:56.423Z,145
2018-08-10T13:08:06.514Z,140
2018-08-10T13:09:16.350Z,140
2018-08-10T13:10:26.447Z,145
2018-08-10T13:11:36.264Z,150
2018-08-10T13:12:46.353Z,155
2018-08-10T13:13:56.458Z,155
2018-08-10T13:15:06.548Z,155
2018-08-10T13:16:16.674Z,155
2018-08-10T13:17:26.755Z,160
2018-08-10T13:18:37.382Z,160
2018-08-10T13:19:47.463Z,165
2018-08-10T13:20:57.328Z,170
2018-08-10T13:22:07.229Z,175
2018-08-10T13:23:17.062Z,180
2018-08-10T13:24:26.914Z,185
2018-08-10T13:25:37.039Z,185
2018-08-10T13:26:47.142Z,190
2018-08-10T13:27:57.253Z,195
2018-08-10T13:29:07.382Z,195
2018-08-10T13:30:17.475Z,185
2018-08-10T13:31:27.279Z,185
2018-08-10T13:32:37.366Z,175
2018-08-10T13:33:47.172Z,175
2018-08-10T13:34:57.000Z,175
2018-08-10T13:36:07.105Z,175
2018-08-10T13:37:17.198Z,175
2018-08-10T13:38:27.299Z,175
2018-08-10T13:39:37.133Z,185
2018-08-10T13:40:47.243Z,195
2018-08-10T13:41:57.343Z,200
2018-08-10T13:43:07.174Z,205
2018-08-10T13:44:17.284Z,210
2018-08-10T13:45:27.448Z,210
2018-08-10T13:46:37.589Z,215
2018-08-10T13:47:47.691Z,225
2018-08-10T13:48:57.534Z,225
2018-08-10T13:50:07.627Z,225
2018-08-10T13:51:17.725Z,230
2018-08-10T13:52:27.559Z,235
2018-08-10T13:53:37.651Z,240
2018-08-10T13:54:47.733Z,240
2018-08-10T13:55:57.847Z,245
2018-08-10T13:57:07.999Z,250
2018-08-10T13:58:18.367Z,250
2018-08-10T13:59:28.216Z,255
2018-08-10T14:00:38.305Z,255
2018-08-10T14:01:48.417Z,255
2018-08-10T14:02:58.246Z,255
2018-08-10T14:04:08.361Z,260
2018-08-10T14:05:18.464Z,260
2018-08-10T14:06:29.023Z,250
2018-08-10T14:07:39.121Z,245
2018-08-10T14:08:49.265Z,240
2018-08-10T14:09:59.083Z,235
2018-08-10T14:11:09.173Z,225
2018-08-10T14:12:19.290Z,220
2018-08-10T14:13:29.372Z,205
2018-08-10T14:14:39.256Z,195
2018-08-10T14:15:49.618Z,195
2018-08-10T14:16:59.747Z,200
2018-08-10T14:18:09.843Z,230
2018-08-10T14:19:19.935Z,255
2018-08-10T14:20:30.092Z,250
2018-08-10T14:21:40.201Z,280
2018-08-10T14:22:50.301Z,285
2018-08-10T14:24:00.132Z,275
2018-08-10T14:25:10.235Z,270
2018-08-10T14:26:20.337Z,265
2018-08-10T14:27:30.164Z,260
2018-08-10T14:28:40.007Z,260
2018-08-10T14:29:50.083Z,240
2018-08-10T14:31:00.185Z,225
2018-08-10T14:32:09.997Z,210
2018-08-10T14:33:19.949Z,200
2018-08-10T14:34:29.714Z,200
2018-08-10T14:35:39.816Z,190
2018-08-10T14:36:49.911Z,180
2018-08-10T14:38:00.070Z,180
2018-08-10T14:39:10.171Z,180
2018-08-10T14:40:20.263Z,175
2018-08-10T14:41:30.864Z,170
2018-08-10T14:42:40.949Z,165
2018-08-10T14:43:51.056Z,160
2018-08-10T14:45:01.161Z,155
2018-08-10T14:46:11.265Z,155
2018-08-10T14:47:21.760Z,150
2018-08-10T14:48:31.605Z,145
2018-08-10T14:49:41.681Z,140
2018-08-10T14:50:51.808Z,135
2018-08-10T14:52:01.929Z,125
2018-08-10T14:53:11.771Z,120
2018-08-10T14:54:21.853Z,115
2018-08-10T14:55:31.935Z,110
2018-08-10T14:56:42.025Z,105
2018-08-10T14:57:52.133Z,105
2018-08-10T14:59:02.208Z,100
2018-08-10T15:00:12.292Z,95
2018-08-10T15:01:22.458Z,95
2018-08-10T15:02:32.546Z,95
2018-08-10T15:03:42.376Z,95
2018-08-10T15:04:52.465Z,90
2018-08-10T15:06:02.564Z,85
2018-08-10T15:07:12.751Z,85
2018-08-10T15:08:22.607Z,80
2018-08-10T15:09:32.713Z,80
2018-08-10T15:10:42.546Z,75
2018-08-10T15:11:53.080Z,70
2018-08-10T15:13:03.812Z,70
2018-08-10T15:14:14.148Z,70
2018-08-10T15:15:24.283Z,75
2018-08-10T15:16:34.103Z,80
2018-08-10T15:17:43.929Z,85
2018-08-10T15:18:53.760Z,85
2018-08-10T15:20:03.848Z,85
2018-08-10T15:21:13.929Z,85
2018-08-10T15:22:23.786Z,85
2018-08-10T15:23:33.922Z,85
2018-08-10T15:24:43.763Z,80
2018-08-10T15:25:53.840Z,80
2018-08-10T15:27:03.922Z,75
2018-08-10T15:28:14.018Z,75
2018-08-10T15:29:23.852Z,75
2018-08-10T15:30:33.999Z,75
2018-08-10T15:31:44.104Z,75
2018-08-10T15:32:53.932Z,75
2018-08-10T15:34:04.039Z,75
2018-08-10T15:35:14.134Z,75
2018-08-10T15:36:24.196Z,80
2018-08-10T15:37:34.283Z,80
2018-08-10T15:38:44.554Z,80
2018-08-10T15:39:54.378Z,75
2018-08-10T15:41:04.455Z,70
2018-08-10T15:42:14.305Z,70
2018-08-10T15:43:24.396Z,65
2018-08-10T15:44:34.509Z,60
2018-08-10T15:45:44.581Z,60
2018-08-10T15:46:54.415Z,60
2018-08-10T15:48:04.301Z,60
2018-08-10T15:49:14.414Z,55
2018-08-10T15:50:24.494Z,55
2018-08-10T15:51:34.589Z,50
2018-08-10T15:52:44.689Z,50
2018-08-10T15:53:54.571Z,50
2018-08-10T15:55:04.680Z,50
2018-08-10T15:56:15.263Z,50
2018-08-10T15:57:25.200Z,55
2018-08-10T15:58:35.297Z,55
2018-08-10T15:59:45.384Z,55
2018-08-10T16:00:55.484Z,60
2018-08-10T16:02:05.718Z,60
2018-08-10T16:03:15.785Z,60
2018-08-10T16:04:25.599Z,60
2018-08-10T16:05:35.697Z,65
2018-08-10T16:06:45.831Z,65
2018-08-10T16:07:55.947Z,60
2018-08-10T16:09:06.045Z,55
2018-08-10T16:10:16.124Z,55
2018-08-10T16:11:26.261Z,55
2018-08-10T16:12:36.381Z,55
2018-08-10T16:13:46.602Z,55
2018-08-10T16:14:56.740Z,55
2018-08-10T16:16:06.830Z,55
2018-08-10T16:17:16.650Z,55
2018-08-10T16:18:26.464Z,50
2018-08-10T16:19:36.016Z,50
2018-08-10T16:20:46.108Z,50
2018-08-10T16:21:56.200Z,50
2018-08-10T16:23:06.311Z,50
2018-08-10T16:24:16.415Z,50
2018-08-10T16:25:26.494Z,50
2018-08-10T16:26:36.572Z,50
2018-08-10T16:27:46.646Z,50
2018-08-10T16:28:56.999Z,50
2018-08-10T16:30:06.808Z,50
2018-08-10T16:31:16.879Z,45
2018-08-10T16:32:27.003Z,45
2018-08-10T16:33:37.091Z,40
2018-08-10T16:34:47.189Z,40
2018-08-10T16:35:57.365Z,40
2018-08-10T16:37:07.247Z,40
2018-08-10T16:38:17.062Z,40
2018-08-10T16:39:27.139Z,40
2018-08-10T16:40:37.229Z,45
2018-08-10T16:41:47.045Z,45
2018-08-10T16:42:57.129Z,45
2018-08-10T16:44:07.223Z,45
2018-08-10T16:45:17.309Z,45
2018-08-10T16:46:27.404Z,40
2018-08-10T16:47:37.501Z,40
2018-08-10T16:48:47.645Z,40
2018-08-10T16:49:57.724Z,35
2018-08-10T16:51:07.812Z,35
2018-08-10T16:52:17.915Z,35
2018-08-10T16:53:27.776Z,35
2018-08-10T16:54:37.617Z,35
2018-08-10T16:55:47.462Z,35